Time;durP1;ratioP1;P1;durP2;ratioP2;P2;SDS_P1;SDS_P2;PMS_P1;PMS_P2;Temp;Humidity;BMP_temperature;BMP_pressure;BME280_temperature;BME280_humidity;BME280_pressure;Samples;Min_cycle;Max_cycle;Signal;HPM_P1;HPM_P2
2023/10/08 00:02:25;;;;;;;10.60;5.70;;;;;;;17.17;100.00;99766.89;105861;1266;60503;-75
2023/10/08 00:04:54;;;;;;;7.80;5.00;;;;;;;17.10;100.00;99763.75;105888;1257;59611;-75
2023/10/08 00:07:21;;;;;;;9.70;5.10;;;;;;;17.03;100.00;99762.13;106006;1258;71582;-74
2023/10/08 00:09:50;;;;;;;8.60;4.70;;;;;;;16.95;100.00;99765.34;105794;1257;62645;-73
2023/10/08 00:12:17;;;;;;;7.70;4.00;;;;;;;16.90;100.00;99764.63;105921;1256;72715;-75
2023/10/08 00:14:49;;;;;;;12.30;4.70;;;;;;;16.85;100.00;99764.14;105612;1260;61974;-75
2023/10/08 00:17:17;;;;;;;9.10;4.10;;;;;;;16.79;100.00;99768.04;105778;1254;60259;-76
2023/10/08 00:19:44;;;;;;;7.80;4.70;;;;;;;16.72;100.00;99767.64;105756;1257;74183;-76
2023/10/08 00:22:12;;;;;;;7.40;4.90;;;;;;;16.66;100.00;99771.63;105785;1254;63991;-76
2023/10/08 00:24:41;;;;;;;11.50;5.10;;;;;;;16.60;100.00;99771.02;105925;1257;72688;-73
2023/10/08 00:27:09;;;;;;;9.70;5.10;;;;;;;16.53;100.00;99768.61;105905;1254;60643;-74
2023/10/08 00:29:40;;;;;;;11.50;6.40;;;;;;;16.48;100.00;99768.98;105707;1253;60365;-74
2023/10/08 00:32:11;;;;;;;10.10;5.20;;;;;;;16.42;100.00;99771.31;105753;1254;73074;-74
2023/10/08 00:34:41;;;;;;;8.40;5.00;;;;;;;16.36;100.00;99773.14;105573;1254;62433;-76
2023/10/08 00:37:10;;;;;;;12.60;6.20;;;;;;;16.30;100.00;99773.91;105725;1254;72691;-75
2023/10/08 00:39:39;;;;;;;11.20;5.90;;;;;;;16.24;100.00;99778.90;105764;1254;60361;-76
2023/10/08 00:42:07;;;;;;;15.50;6.00;;;;;;;16.18;100.00;99781.98;105760;1253;59635;-76
2023/10/08 00:44:41;;;;;;;10.90;6.60;;;;;;;16.12;100.00;99782.65;105673;1261;71872;-76
2023/10/08 00:47:11;;;;;;;11.20;6.60;;;;;;;16.07;100.00;99785.96;105769;1257;63653;-74
2023/10/08 00:57:21;;;;;;;11.90;7.90;;;;;;;15.89;100.00;99781.91;106029;1253;72986;-73
2023/10/08 00:59:56;;;;;;;14.70;6.90;;;;;;;15.82;100.00;99782.59;106070;1251;63718;-75
2023/10/08 01:02:27;;;;;;;10.30;5.50;;;;;;;15.74;100.00;99785.27;105872;1256;72820;-72
2023/10/08 01:04:55;;;;;;;10.70;6.10;;;;;;;15.66;100.00;99783.49;106068;1254;62015;-74
2023/10/08 01:07:23;;;;;;;11.80;5.60;;;;;;;15.60;100.00;99773.67;106081;1251;60309;-73
2023/10/08 01:09:51;;;;;;;12.20;6.20;;;;;;;15.56;100.00;99774.13;105947;1250;73026;-73
2023/10/08 01:15:00;;;;;;;11.90;4.70;;;;;;;15.47;100.00;99762.27;105885;1251;72700;-74
2023/10/08 01:17:32;;;;;;;12.50;5.90;;;;;;;15.44;100.00;99761.10;105934;1255;61955;-72
2023/10/08 01:22:44;;;;;;;7.50;5.50;;;;;;;15.33;100.00;99757.88;106055;1251;72905;-75
2023/10/08 01:25:20;;;;;;;10.50;6.10;;;;;;;15.29;100.00;99757.77;106024;1251;62426;-75
2023/10/08 01:27:47;;;;;;;10.70;5.50;;;;;;;15.24;100.00;99754.33;106143;1251;72643;-76
2023/10/08 01:30:20;;;;;;;13.10;6.50;;;;;;;15.20;100.00;99746.83;105978;1254;62042;-73
2023/10/08 01:32:47;;;;;;;7.90;6.10;;;;;;;15.15;100.00;99744.77;106083;1251;60281;-73
2023/10/08 01:35:23;;;;;;;11.30;6.90;;;;;;;15.10;100.00;99741.38;106040;1251;73144;-74
2023/10/08 01:37:50;;;;;;;15.80;8.10;;;;;;;15.07;100.00;99739.77;106051;1254;63822;-74
2023/10/08 01:40:21;;;;;;;12.40;8.20;;;;;;;15.04;100.00;99741.83;105912;1251;72655;-76
2023/10/08 01:42:51;;;;;;;14.30;8.30;;;;;;;15.01;100.00;99738.39;106021;1253;60628;-74
2023/10/08 01:45:19;;;;;;;12.00;7.80;;;;;;;14.99;100.00;99735.59;106125;1254;60077;-76
2023/10/08 01:47:51;;;;;;;16.20;8.70;;;;;;;14.96;100.00;99732.47;106064;1250;73063;-76
2023/10/08 01:50:29;;;;;;;13.70;10.20;;;;;;;14.94;100.00;99732.16;106136;1254;63962;-77
2023/10/08 01:52:56;;;;;;;14.50;10.70;;;;;;;14.91;100.00;99729.24;106165;1254;72650;-74
2023/10/08 01:55:23;;;;;;;17.30;12.40;;;;;;;14.89;100.00;99732.06;106033;1251;60547;-77
2023/10/08 01:57:53;;;;;;;17.90;11.30;;;;;;;14.87;100.00;99729.96;106067;1250;60006;-75
2023/10/08 02:00:22;;;;;;;20.80;10.90;;;;;;;14.86;100.00;99731.86;105973;1250;73150;-77
2023/10/08 02:02:50;;;;;;;16.60;10.60;;;;;;;14.85;100.00;99730.52;106082;1253;63684;-76
2023/10/08 02:05:18;;;;;;;17.10;10.20;;;;;;;14.84;100.00;99729.73;106186;1251;72647;-77
2023/10/08 02:07:45;;;;;;;13.40;8.80;;;;;;;14.83;100.00;99727.91;106049;1250;60457;-75
2023/10/08 02:10:14;;;;;;;11.80;7.70;;;;;;;14.81;100.00;99724.87;105945;1257;60390;-72
2023/10/08 02:12:41;;;;;;;12.40;6.20;;;;;;;14.81;100.00;99716.27;106113;1251;73147;-74
2023/10/08 02:15:11;;;;;;;8.90;5.40;;;;;;;14.81;100.00;99718.43;106210;1251;62368;-76
2023/10/08 02:17:41;;;;;;;10.00;6.00;;;;;;;14.80;100.00;99712.33;106147;1253;72712;-73
2023/10/08 02:20:08;;;;;;;9.90;6.80;;;;;;;14.79;100.00;99711.56;106161;1249;60628;-75
2023/10/08 02:22:35;;;;;;;10.60;7.30;;;;;;;14.78;100.00;99704.77;106168;1250;60470;-76
2023/10/08 02:25:03;;;;;;;10.50;6.30;;;;;;;14.77;100.00;99703.23;106017;1250;72994;-76
2023/10/08 02:27:33;;;;;;;15.60;7.50;;;;;;;14.76;100.00;99696.01;106122;1254;63810;-75
2023/10/08 02:30:03;;;;;;;12.30;7.70;;;;;;;14.75;100.00;99691.32;106103;1253;72531;-75
2023/10/08 02:32:31;;;;;;;10.60;6.50;;;;;;;14.74;100.00;99693.52;106255;1253;62101;-76
2023/10/08 02:34:58;;;;;;;10.70;6.10;;;;;;;14.73;100.00;99691.88;106107;1254;60433;-76
2023/10/08 02:37:25;;;;;;;9.30;6.20;;;;;;;14.72;100.00;99687.57;106141;1249;71716;-76
2023/10/08 02:39:52;;;;;;;14.30;6.50;;;;;;;14.71;100.00;99684.45;106058;1253;62532;-76
2023/10/08 02:42:20;;;;;;;8.60;6.20;;;;;;;14.69;100.00;99687.60;105850;1257;72412;-74
2023/10/08 02:44:46;;;;;;;5.90;4.00;;;;;;;14.67;100.00;99684.66;106024;1253;61877;-76
2023/10/08 02:47:22;;;;;;;4.10;2.20;;;;;;;14.62;100.00;99686.30;106027;1251;60882;-75
2023/10/08 02:49:49;;;;;;;5.00;2.60;;;;;;;14.54;100.00;99685.99;106070;1249;72509;-74
2023/10/08 02:52:16;;;;;;;3.50;1.60;;;;;;;14.46;100.00;99687.29;106038;1251;62366;-76
2023/10/08 02:54:43;;;;;;;3.40;1.20;;;;;;;14.37;100.00;99682.10;106054;1252;72553;-76
2023/10/08 02:57:14;;;;;;;2.80;1.20;;;;;;;14.30;100.00;99685.66;106078;1254;60848;-75
2023/10/08 02:59:40;;;;;;;3.90;1.20;;;;;;;14.25;100.00;99675.80;106050;1253;60506;-77
2023/10/08 03:02:21;;;;;;;2.40;1.40;;;;;;;14.21;100.00;99678.61;106092;1253;73726;-74
2023/10/08 03:04:51;;;;;;;4.80;1.30;;;;;;;14.17;100.00;99677.38;106059;1253;63897;-76
2023/10/08 03:07:32;;;;;;;3.60;1.60;;;;;;;14.14;100.00;99676.29;106106;1250;71546;-79
2023/10/08 03:10:18;;;;;;;2.90;1.10;;;;;;;14.08;100.00;99671.13;105920;1250;61738;-79
2023/10/08 03:12:46;;;;;;;2.30;1.00;;;;;;;14.04;100.00;99666.45;106087;1252;60625;-76
2023/10/08 03:15:27;;;;;;;4.00;1.00;;;;;;;14.00;100.00;99660.98;105880;1256;73861;-76
2023/10/08 03:17:57;;;;;;;2.00;1.00;;;;;;;13.97;100.00;99658.45;105901;1256;63982;-75
2023/10/08 03:20:27;;;;;;;2.00;1.20;;;;;;;13.95;100.00;99655.98;105832;1252;72785;-74
2023/10/08 03:22:57;;;;;;;2.80;1.00;;;;;;;13.94;100.00;99656.27;105816;1256;61882;-76
2023/10/08 03:25:24;;;;;;;3.70;1.10;;;;;;;13.92;100.00;99651.34;106057;1253;61121;-77
2023/10/08 03:27:54;;;;;;;1.90;1.20;;;;;;;13.90;100.00;99652.57;105811;1251;73984;-75
2023/10/08 03:30:21;;;;;;;1.60;1.10;;;;;;;13.88;100.00;99644.81;106061;1253;63845;-75
2023/10/08 03:32:55;;;;;;;1.20;0.80;;;;;;;13.86;100.00;99637.13;105942;1252;72856;-77
2023/10/08 03:35:30;;;;;;;3.00;1.00;;;;;;;13.84;100.00;99633.94;105943;1254;60536;-76
2023/10/08 03:38:18;;;;;;;4.50;1.00;;;;;;;13.82;100.00;99630.94;105851;1251;60390;-77
2023/10/08 03:40:48;;;;;;;2.10;1.20;;;;;;;13.81;100.00;99623.52;106075;1253;73636;-76
2023/10/08 03:43:33;;;;;;;2.70;1.20;;;;;;;13.80;100.00;99618.70;106130;1253;62380;-77
2023/10/08 03:46:14;;;;;;;4.20;1.30;;;;;;;13.78;100.00;99616.02;106072;1253;72636;-74
2023/10/08 03:48:44;;;;;;;5.00;1.90;;;;;;;13.77;100.00;99613.98;106076;1253;60510;-74
2023/10/08 03:51:12;;;;;;;3.30;2.40;;;;;;;13.77;100.00;99611.23;106075;1254;60332;-77
2023/10/08 03:53:58;;;;;;;3.30;3.00;;;;;;;13.77;100.00;99611.41;106137;1254;73783;-75
2023/10/08 03:56:30;;;;;;;4.20;3.20;;;;;;;13.77;100.00;99610.50;106064;1254;63871;-76
2023/10/08 03:59:00;;;;;;;4.80;3.70;;;;;;;13.77;100.00;99611.02;106014;1251;72706;-78
2023/10/08 04:01:31;;;;;;;8.00;5.30;;;;;;;13.77;100.00;99612.08;106089;1253;61725;-75
2023/10/08 04:04:00;;;;;;;7.60;5.80;;;;;;;13.78;100.00;99614.84;106060;1250;60450;-76
2023/10/08 04:09:25;;;;;;;6.20;4.70;;;;;;;13.77;100.00;99605.59;105959;1251;63041;-75
2023/10/08 04:11:51;;;;;;;6.50;3.80;;;;;;;13.77;100.00;99602.65;106135;1252;72738;-75
2023/10/08 04:14:19;;;;;;;5.10;3.60;;;;;;;13.77;100.00;99608.91;106062;1253;60660;-77
2023/10/08 04:16:46;;;;;;;4.90;2.80;;;;;;;13.77;100.00;99614.77;105988;1250;60616;-77
2023/10/08 04:19:17;;;;;;;2.90;2.60;;;;;;;13.76;100.00;99619.95;106049;1252;73635;-74
2023/10/08 04:21:45;;;;;;;3.40;2.00;;;;;;;13.73;100.00;99624.94;106076;1253;63852;-74
2023/10/08 04:24:14;;;;;;;3.10;1.50;;;;;;;13.71;100.00;99634.08;105992;1253;71165;-77
2023/10/08 04:26:41;;;;;;;3.70;2.00;;;;;;;13.68;100.00;99648.53;106029;1254;61727;-76
2023/10/08 04:29:08;;;;;;;2.70;1.60;;;;;;;13.66;100.00;99652.72;106162;1250;60469;-77
2023/10/08 04:31:38;;;;;;;5.60;2.30;;;;;;;13.66;100.00;99654.54;106076;1251;73802;-74
2023/10/08 04:34:22;;;;;;;3.20;2.00;;;;;;;13.62;100.00;99655.57;106084;1253;62613;-76
2023/10/08 04:36:57;;;;;;;5.10;4.10;;;;;;;13.60;100.00;99650.98;106109;1252;72742;-74
2023/10/08 04:39:32;;;;;;;11.80;6.30;;;;;;;13.58;100.00;99650.13;106137;1251;61940;-74
2023/10/08 04:42:06;;;;;;;14.10;9.80;;;;;;;13.57;100.00;99654.62;106025;1254;60381;-76
2023/10/08 04:44:38;;;;;;;16.00;11.10;;;;;;;13.55;100.00;99657.44;106047;1252;73892;-75
2023/10/08 04:47:06;;;;;;;18.50;13.40;;;;;;;13.52;100.00;99662.11;106155;1253;63728;-75
2023/10/08 04:49:34;;;;;;;17.70;11.50;;;;;;;13.49;100.00;99662.55;106143;1253;72685;-76
2023/10/08 04:52:14;;;;;;;15.40;11.10;;;;;;;13.45;100.00;99654.43;106007;1250;60524;-74
2023/10/08 04:54:51;;;;;;;12.10;9.10;;;;;;;13.43;100.00;99651.27;106016;1251;60428;-75
2023/10/08 04:57:21;;;;;;;8.60;7.20;;;;;;;13.41;100.00;99657.04;106068;1250;73829;-77
2023/10/08 04:59:50;;;;;;;8.60;6.50;;;;;;;13.39;100.00;99655.66;106061;1254;63932;-75
2023/10/08 05:02:22;;;;;;;10.20;5.90;;;;;;;13.37;100.00;99655.81;106036;1251;71065;-77
2023/10/08 05:12:42;;;;;;;8.10;4.80;;;;;;;13.25;100.00;99678.60;106054;1253;63841;-76
2023/10/08 05:23:20;;;;;;;4.50;2.40;;;;;;;13.16;100.00;99685.31;106080;1253;73839;-75
2023/10/08 05:28:46;;;;;;;6.00;2.90;;;;;;;13.11;100.00;99685.94;106028;1252;72631;-75
2023/10/08 05:36:35;;;;;;;2.30;1.80;;;;;;;13.10;100.00;99683.96;106160;1250;74396;-76
2023/10/08 05:39:29;;;;;;;6.20;3.80;;;;;;;13.10;100.00;99683.77;106092;1254;63876;-77
2023/10/08 05:42:12;;;;;;;8.10;5.60;;;;;;;13.11;100.00;99676.15;106100;1251;70906;-78
2023/10/08 05:44:45;;;;;;;15.70;9.20;;;;;;;13.13;100.00;99673.37;106100;1254;62051;-79
2023/10/08 05:53:02;;;;;;;21.80;15.10;;;;;;;13.19;100.00;99660.14;105996;1252;62609;-77
2023/10/08 05:55:34;;;;;;;19.10;13.80;;;;;;;13.21;100.00;99658.55;106057;1250;72591;-75
2023/10/08 06:03:36;;;;;;;14.10;10.70;;;;;;;13.28;100.00;99657.42;105994;1254;73921;-77
2023/10/08 06:06:22;;;;;;;24.80;13.60;;;;;;;13.31;100.00;99658.83;106135;1253;63938;-76
2023/10/08 06:09:20;;;;;;;18.90;12.60;;;;;;;13.33;100.00;99648.81;106149;1254;72643;-76
2023/10/08 06:12:06;;;;;;;24.40;13.80;;;;;;;13.36;100.00;99649.10;106001;1250;61718;-74
2023/10/08 06:15:02;;;;;;;29.30;16.60;;;;;;;13.39;100.00;99653.41;106099;1253;60402;-77
2023/10/08 06:17:56;;;;;;;30.20;16.80;;;;;;;13.42;100.00;99652.19;106074;1251;73934;-77
2023/10/08 06:20:26;;;;;;;36.10;19.00;;;;;;;13.44;100.00;99653.41;106115;1250;62865;-75
2023/10/08 06:22:55;;;;;;;29.30;17.40;;;;;;;13.46;100.00;99659.93;106173;1251;72657;-75
2023/10/08 06:25:24;;;;;;;34.60;16.90;;;;;;;13.47;100.00;99659.99;106138;1253;61892;-73
2023/10/08 06:27:58;;;;;;;28.80;15.70;;;;;;;13.48;100.00;99663.83;106165;1250;60449;-75
2023/10/08 06:30:34;;;;;;;28.40;14.90;;;;;;;13.49;100.00;99671.31;106064;1253;73886;-78
2023/10/08 06:33:03;;;;;;;19.90;14.70;;;;;;;13.48;100.00;99676.47;106073;1251;63131;-74
2023/10/08 06:35:32;;;;;;;24.50;13.20;;;;;;;13.47;100.00;99683.56;106164;1251;72388;-76
2023/10/08 06:38:01;;;;;;;19.00;13.50;;;;;;;13.45;100.00;99689.84;106160;1253;61839;-75
2023/10/08 06:43:21;;;;;;;16.30;10.20;;;;;;;13.41;100.00;99686.59;106038;1250;73909;-76
2023/10/08 06:45:52;;;;;;;14.00;7.10;;;;;;;13.39;100.00;99686.55;105883;1251;64252;-78
2023/10/08 06:48:29;;;;;;;8.90;4.80;;;;;;;13.38;100.00;99686.15;106057;1251;72439;-77
2023/10/08 06:50:58;;;;;;;6.60;4.40;;;;;;;13.35;100.00;99688.15;106110;1254;60748;-74
2023/10/08 06:53:25;;;;;;;5.30;3.00;;;;;;;13.33;100.00;99693.60;106143;1250;60417;-76
2023/10/08 06:55:56;;;;;;;6.00;3.10;;;;;;;13.30;100.00;99696.83;106154;1253;73700;-74
2023/10/08 06:58:24;;;;;;;4.90;3.00;;;;;;;13.27;100.00;99704.95;106214;1251;64464;-76
2023/10/08 07:00:52;;;;;;;4.20;3.00;;;;;;;13.24;100.00;99700.46;106084;1251;72423;-76
2023/10/08 07:03:20;;;;;;;4.10;2.90;;;;;;;13.20;100.00;99703.45;106121;1251;62042;-76
2023/10/08 07:05:57;;;;;;;6.70;3.90;;;;;;;13.18;100.00;99705.72;106133;1254;60475;-75
2023/10/08 07:08:25;;;;;;;7.00;4.90;;;;;;;13.18;100.00;99711.17;106153;1249;73513;-73
2023/10/08 07:10:52;;;;;;;4.20;2.50;;;;;;;13.15;100.00;99736.53;106051;1251;63677;-77
2023/10/08 07:13:21;;;;;;;4.00;2.30;;;;;;;13.05;100.00;99753.37;106109;1250;72534;-78
2023/10/08 07:15:50;;;;;;;4.30;1.70;;;;;;;12.83;100.00;99756.77;106121;1253;62415;-76
2023/10/08 07:18:26;;;;;;;3.30;1.80;;;;;;;12.59;100.00;99758.02;106098;1254;60337;-77
2023/10/08 07:20:54;;;;;;;4.10;1.40;;;;;;;12.40;100.00;99757.10;106101;1251;73756;-75
2023/10/08 07:23:25;;;;;;;3.70;1.40;;;;;;;12.26;100.00;99759.69;106165;1251;63848;-76
2023/10/08 07:25:53;;;;;;;3.70;1.60;;;;;;;12.12;100.00;99759.88;106070;1254;72564;-77
2023/10/08 07:28:20;;;;;;;5.20;1.50;;;;;;;12.01;100.00;99763.23;106134;1250;61830;-77
2023/10/08 07:30:49;;;;;;;3.90;1.30;;;;;;;11.95;100.00;99766.82;106101;1254;60533;-76
2023/10/08 07:33:18;;;;;;;5.60;1.10;;;;;;;11.89;100.00;99766.61;106163;1253;73795;-78
2023/10/08 07:36:32;;;;;;;1.90;1.40;;;;;;;11.83;100.00;99772.84;105848;1256;63981;-75
2023/10/08 07:38:42;;;;;;;1.80;0.70;;;;;;;11.77;100.00;99769.96;105982;1251;71450;-74
2023/10/08 07:41:12;;;;;;;2.40;1.10;;;;;;;11.74;100.00;99775.64;106143;1254;60696;-77
2023/10/08 07:43:40;;;;;;;2.70;0.80;;;;;;;11.69;100.00;99782.15;106163;1250;61040;-76
2023/10/08 07:46:09;;;;;;;2.50;0.80;;;;;;;11.65;100.00;99782.98;106121;1254;73493;-73
2023/10/08 07:48:42;;;;;;;4.00;1.10;;;;;;;11.62;100.00;99780.64;106223;1254;63726;-76
2023/10/08 07:51:08;;;;;;;2.00;1.10;;;;;;;11.59;100.00;99778.94;106110;1251;71362;-75
2023/10/08 07:53:38;;;;;;;1.40;1.00;;;;;;;11.55;100.00;99774.90;106090;1254;61990;-74
2023/10/08 07:56:10;;;;;;;2.90;1.10;;;;;;;11.49;100.00;99772.70;106135;1251;60507;-75
2023/10/08 07:58:37;;;;;;;3.10;0.70;;;;;;;11.45;100.00;99775.52;106097;1249;73815;-75
2023/10/08 08:01:09;;;;;;;4.30;0.80;;;;;;;11.39;100.00;99780.08;106137;1254;63624;-76
2023/10/08 08:03:36;;;;;;;3.60;1.50;;;;;;;11.37;100.00;99779.91;106183;1251;72632;-76
2023/10/08 08:06:05;;;;;;;4.60;1.30;;;;;;;11.36;100.00;99788.52;106121;1254;61806;-74
2023/10/08 08:08:33;;;;;;;6.90;1.70;;;;;;;11.35;100.00;99794.56;106203;1251;60465;-75
2023/10/08 08:11:05;;;;;;;4.10;1.30;;;;;;;11.33;100.00;99794.39;106118;1252;73827;-76
2023/10/08 08:13:33;;;;;;;3.70;1.60;;;;;;;11.32;100.00;99799.59;106071;1253;64040;-75
2023/10/08 08:16:09;;;;;;;9.70;1.70;;;;;;;11.31;100.00;99808.73;106090;1254;72407;-77
2023/10/08 08:18:37;;;;;;;2.10;1.00;;;;;;;11.32;100.00;99815.35;106038;1254;61865;-74
2023/10/08 08:21:14;;;;;;;1.90;1.40;;;;;;;11.30;100.00;99821.42;106132;1251;60827;-76
2023/10/08 08:23:47;;;;;;;3.90;1.30;;;;;;;11.29;100.00;99828.45;106102;1251;74869;-74
2023/10/08 08:29:18;;;;;;;3.80;2.00;;;;;;;11.29;100.00;99822.17;105784;1251;71724;-76
2023/10/08 08:31:46;;;;;;;1.60;1.30;;;;;;;11.30;100.00;99826.12;106464;1254;60498;-73
2023/10/08 08:34:19;;;;;;;4.30;1.50;;;;;;;11.32;100.00;99828.46;106200;1253;60398;-73
2023/10/08 08:36:48;;;;;;;2.40;1.40;;;;;;;11.33;100.00;99830.14;106059;1249;73831;-76
2023/10/08 08:39:36;;;;;;;2.10;1.50;;;;;;;11.32;100.00;99834.04;106130;1250;63517;-77
2023/10/08 08:42:04;;;;;;;3.00;1.80;;;;;;;11.32;100.00;99832.64;106087;1252;71437;-76
2023/10/08 08:44:35;;;;;;;4.60;2.30;;;;;;;11.31;100.00;99837.27;106133;1254;62456;-76
2023/10/08 08:47:04;;;;;;;7.70;2.90;;;;;;;11.32;100.00;99839.67;106145;1251;60472;-75
2023/10/08 08:49:33;;;;;;;3.20;1.90;;;;;;;11.32;100.00;99832.62;106099;1254;72572;-78
2023/10/08 08:52:00;;;;;;;4.80;2.50;;;;;;;11.33;100.00;99841.65;106089;1254;63951;-78
2023/10/08 08:54:30;;;;;;;4.20;2.20;;;;;;;11.35;100.00;99856.52;106144;1251;71596;-77
2023/10/08 08:57:02;;;;;;;4.40;2.00;;;;;;;11.37;100.00;99865.55;106027;1253;61966;-74
2023/10/08 08:59:30;;;;;;;5.30;2.30;;;;;;;11.38;100.00;99871.06;106107;1253;60417;-76
2023/10/08 09:01:59;;;;;;;4.50;1.80;;;;;;;11.36;100.00;99873.48;105784;1256;73659;-76
2023/10/08 09:04:30;;;;;;;3.90;1.80;;;;;;;11.35;100.00;99880.48;105982;1256;63809;-77
2023/10/08 09:06:59;;;;;;;5.10;1.90;;;;;;;11.37;100.00;99879.83;106126;1252;72748;-77
2023/10/08 09:09:33;;;;;;;6.40;2.60;;;;;;;11.40;100.00;99877.86;106162;1249;62030;-77
2023/10/08 09:12:00;;;;;;;3.70;1.60;;;;;;;11.43;100.00;99879.77;106180;1251;61060;-74
2023/10/08 09:14:29;;;;;;;3.60;1.90;;;;;;;11.45;100.00;99874.58;106135;1251;72725;-76
2023/10/08 09:16:56;;;;;;;4.10;2.40;;;;;;;11.47;100.00;99868.80;106123;1254;63760;-75
2023/10/08 09:19:24;;;;;;;5.40;2.30;;;;;;;11.49;100.00;99874.07;106098;1249;72730;-75
2023/10/08 09:22:09;;;;;;;4.40;2.60;;;;;;;11.51;100.00;99874.61;106077;1254;60796;-78
2023/10/08 09:24:38;;;;;;;3.20;2.40;;;;;;;11.52;100.00;99877.01;106022;1251;60460;-77
2023/10/08 09:27:09;;;;;;;4.40;3.00;;;;;;;11.53;100.00;99876.54;106138;1250;72551;-76
2023/10/08 09:29:39;;;;;;;6.40;2.60;;;;;;;11.55;100.00;99876.71;106092;1251;63895;-76
2023/10/08 09:32:09;;;;;;;6.20;2.70;;;;;;;11.56;100.00;99876.34;106044;1252;75436;-75
2023/10/08 09:34:37;;;;;;;2.70;2.30;;;;;;;11.55;100.00;99871.86;106133;1252;61868;-76
2023/10/08 09:37:04;;;;;;;3.90;2.30;;;;;;;11.56;100.00;99862.84;106179;1251;60452;-75
2023/10/08 09:39:34;;;;;;;5.20;2.60;;;;;;;11.57;100.00;99863.81;106178;1253;73862;-78
2023/10/08 09:42:11;;;;;;;2.70;1.80;;;;;;;11.58;100.00;99865.30;106239;1253;63838;-74
2023/10/08 09:44:39;;;;;;;5.30;2.20;;;;;;;11.57;100.00;99860.11;106115;1250;72690;-78
2023/10/08 09:47:08;;;;;;;3.20;1.60;;;;;;;11.55;100.00;99863.42;105889;1255;60520;-78
2023/10/08 09:49:57;;;;;;;4.30;1.50;;;;;;;11.51;100.00;99866.88;106131;1250;60328;-76
2023/10/08 09:52:30;;;;;;;2.80;1.60;;;;;;;11.48;100.00;99866.81;106166;1254;73781;-77
2023/10/08 09:55:03;;;;;;;2.30;1.80;;;;;;;11.48;100.00;99880.23;106152;1254;62365;-76
2023/10/08 09:57:30;;;;;;;4.20;2.40;;;;;;;11.47;100.00;99892.23;106137;1251;72537;-77
2023/10/08 09:59:57;;;;;;;5.90;2.70;;;;;;;11.45;100.00;99894.16;106192;1253;61791;-77
2023/10/08 10:02:31;;;;;;;6.30;2.50;;;;;;;11.42;100.00;99893.47;106151;1250;60406;-75
2023/10/08 10:04:58;;;;;;;6.40;1.70;;;;;;;11.40;100.00;99901.35;105976;1255;73799;-79
2023/10/08 10:07:25;;;;;;;4.00;2.20;;;;;;;11.36;100.00;99904.42;106271;1250;63769;-78
2023/10/08 10:09:55;;;;;;;5.50;2.80;;;;;;;11.33;100.00;99903.13;106761;1250;71931;-75
2023/10/08 10:12:28;;;;;;;5.00;2.60;;;;;;;11.31;100.00;99901.30;106609;1251;61984;-76
2023/10/08 10:14:56;;;;;;;7.10;2.90;;;;;;;11.31;100.00;99909.03;106174;1259;60454;-76
2023/10/08 10:17:25;;;;;;;3.50;2.00;;;;;;;11.31;100.00;99919.14;106224;1251;73706;-78
2023/10/08 10:20:13;;;;;;;3.20;1.80;;;;;;;11.30;100.00;99921.83;106101;1254;63986;-75
2023/10/08 10:22:43;;;;;;;5.70;1.80;;;;;;;11.28;100.00;99928.14;106141;1252;72640;-77
2023/10/08 10:25:19;;;;;;;4.50;2.10;;;;;;;11.26;100.00;99928.63;105979;1251;61979;-76
2023/10/08 10:28:04;;;;;;;3.50;1.50;;;;;;;11.22;100.00;99936.95;106152;1251;60514;-78
2023/10/08 10:30:32;;;;;;;;;;;;;;;11.17;100.00;99941.38;106202;1254;73892;-79
2023/10/08 10:33:00;;;;;;;3.90;1.50;;;;;;;11.11;100.00;99943.16;106257;1250;62290;-78
2023/10/08 10:35:28;;;;;;;3.90;1.30;;;;;;;11.06;100.00;99919.45;106258;1251;72767;-77
2023/10/08 10:37:55;;;;;;;2.90;1.30;;;;;;;11.02;100.00;99921.95;106154;1251;60977;-74
2023/10/08 10:40:40;;;;;;;2.10;1.40;;;;;;;10.97;100.00;99928.42;106201;1251;60459;-78
2023/10/08 10:43:09;;;;;;;5.90;1.10;;;;;;;10.93;100.00;99940.84;106075;1253;199908;-76
2023/10/08 10:47:25;;;;;;;2.00;1.20;;;;;;;10.90;100.00;99935.98;102538;1291;604651;-80
2023/10/08 10:52:34;;;;;;;2.80;1.00;;;;;;;10.78;100.00;99942.94;104878;1266;59508;-76
2023/10/08 10:55:20;;;;;;;3.00;1.20;;;;;;;10.71;100.00;99941.89;104872;1266;72306;-77
2023/10/08 10:57:56;;;;;;;1.20;1.10;;;;;;;10.69;100.00;99945.66;104896;1266;62576;-76
2023/10/08 11:03:15;;;;;;;4.50;1.90;;;;;;;10.66;100.00;99951.16;104993;1262;60498;-75
2023/10/08 11:05:48;;;;;;;11.90;3.50;;;;;;;10.64;100.00;99948.66;105196;1267;60911;-78
2023/10/08 11:08:22;;;;;;;3.90;1.40;;;;;;;10.60;100.00;99950.91;105640;1255;72059;-77
2023/10/08 11:10:53;;;;;;;4.40;2.10;;;;;;;10.54;100.00;99945.39;105591;1259;63864;-78
2023/10/08 11:13:21;;;;;;;3.40;1.10;;;;;;;10.49;100.00;99948.33;105646;1254;72731;-74
2023/10/08 11:15:51;;;;;;;3.90;1.20;;;;;;;10.48;100.00;99952.63;105743;1257;60511;-78
2023/10/08 11:18:22;;;;;;;3.70;0.90;;;;;;;10.46;100.00;99954.33;105683;1254;60422;-78
2023/10/08 11:21:13;;;;;;;2.00;0.90;;;;;;;10.41;100.00;99954.14;105694;1259;73134;-79
2023/10/08 11:23:52;;;;;;;1.90;0.70;;;;;;;10.38;100.00;99967.98;105924;1256;64864;-75
2023/10/08 11:26:21;;;;;;;5.70;1.60;;;;;;;10.36;100.00;99952.58;105643;1259;73867;-79
2023/10/08 11:28:48;;;;;;;3.80;0.70;;;;;;;10.35;100.00;99935.66;105695;1259;60666;-78
2023/10/08 11:31:19;;;;;;;6.00;1.30;;;;;;;10.37;100.00;99924.70;105623;1254;60207;-78
2023/10/08 11:33:56;;;;;;;2.90;1.00;;;;;;;10.41;100.00;99926.73;105999;1256;71758;-78
2023/10/08 11:36:30;;;;;;;1.80;0.80;;;;;;;10.46;100.00;99926.55;106060;1257;63937;-75
2023/10/08 11:39:11;;;;;;;1.10;0.90;;;;;;;10.49;100.00;99925.30;106681;1256;72660;-74
2023/10/08 11:41:50;;;;;;;1.90;1.20;;;;;;;10.50;100.00;99926.08;106185;1254;60826;-77
2023/10/08 11:44:19;;;;;;;4.10;2.30;;;;;;;10.53;100.00;99925.16;106270;1254;59744;-77
2023/10/08 11:46:51;;;;;;;3.30;2.30;;;;;;;10.54;100.00;99912.28;105993;1256;73161;-79
2023/10/08 11:49:19;;;;;;;3.40;2.50;;;;;;;10.56;100.00;99907.98;105912;1254;62434;-78
2023/10/08 11:51:46;;;;;;;5.80;3.00;;;;;;;10.58;100.00;99904.35;105943;1256;72542;-76
2023/10/08 11:54:14;;;;;;;8.60;2.90;;;;;;;10.61;100.00;99902.58;106129;1254;61945;-75
2023/10/08 11:56:41;;;;;;;6.60;2.90;;;;;;;10.62;100.00;99900.61;106363;1259;59575;-77
2023/10/08 11:59:12;;;;;;;5.00;2.40;;;;;;;10.63;100.00;99901.92;106295;1259;73151;-78
2023/10/08 12:01:42;;;;;;;6.00;2.40;;;;;;;10.65;100.00;99899.87;105912;1258;64020;-77
2023/10/08 12:04:15;;;;;;;6.00;2.60;;;;;;;10.68;100.00;99904.17;105775;1256;72534;-77
2023/10/08 12:06:52;;;;;;;7.00;2.10;;;;;;;10.70;100.00;99910.30;105721;1255;61890;-77
2023/10/08 12:09:21;;;;;;;4.00;2.30;;;;;;;10.73;100.00;99901.16;105500;1256;60344;-78
2023/10/08 12:11:48;;;;;;;4.80;2.40;;;;;;;10.74;100.00;99897.63;105719;1254;71772;-76
2023/10/08 12:14:15;;;;;;;3.10;1.70;;;;;;;10.75;100.00;99895.13;105639;1254;63818;-79
2023/10/08 12:16:45;;;;;;;4.40;2.50;;;;;;;10.75;100.00;99897.55;105584;1257;72809;-78
2023/10/08 12:19:15;;;;;;;4.80;2.60;;;;;;;10.74;100.00;99902.82;105720;1259;62001;-77
2023/10/08 12:21:46;;;;;;;6.40;2.90;;;;;;;10.75;100.00;99911.34;105464;1255;60296;-76
2023/10/08 12:24:12;;;;;;;4.30;2.90;;;;;;;10.76;100.00;99900.80;105716;1253;73012;-74
2023/10/08 12:26:45;;;;;;;4.20;2.40;;;;;;;10.76;100.00;99905.47;105757;1256;63773;-76
2023/10/08 12:29:19;;;;;;;6.40;3.30;;;;;;;10.77;100.00;99894.20;105750;1256;75007;-78
2023/10/08 12:31:47;;;;;;;7.00;4.20;;;;;;;10.78;100.00;99898.71;105811;1253;60458;-77
2023/10/08 12:34:15;;;;;;;8.80;3.90;;;;;;;10.75;100.00;99894.02;105744;1254;60340;-76
2023/10/08 12:36:42;;;;;;;12.10;5.70;;;;;;;10.73;100.00;99891.74;105797;1253;73030;-76
2023/10/08 12:39:14;;;;;;;19.50;11.00;;;;;;;10.73;100.00;99883.90;105808;1256;64179;-75